createdAt,value
2022-12-22T00:01:55.282Z,90.60
2022-12-22T00:04:41.335Z,87.43
2022-12-22T00:07:27.053Z,90.10
2022-12-22T00:10:14.196Z,94.63
2022-12-22T00:13:00.128Z,96.60
2022-12-22T00:15:50.044Z,96.10
2022-12-22T00:18:35.950Z,90.05
2022-12-22T00:21:21.814Z,92.07
2022-12-22T00:24:07.888Z,87.20
2022-12-22T00:26:55.380Z,88.95
2022-12-22T00:29:41.166Z,85.97
2022-12-22T00:32:32.788Z,91.68
2022-12-22T00:35:19.547Z,92.30
2022-12-22T00:38:05.119Z,86.05
2022-12-22T00:40:51.031Z,89.95
2022-12-22T00:43:38.133Z,90.45
2022-12-22T00:46:24.015Z,88.22
2022-12-22T00:49:09.922Z,89.97
2022-12-22T00:51:55.700Z,101.13
2022-12-22T00:54:41.942Z,98.85
2022-12-22T00:57:34.022Z,96.30
2022-12-22T01:00:22.129Z,95.32
2022-12-22T01:03:07.929Z,94.53
2022-12-22T01:05:54.005Z,93.57
2022-12-22T01:08:39.859Z,95.85
2022-12-22T01:11:26.709Z,97.38
2022-12-22T01:14:12.630Z,96.60
2022-12-22T01:17:00.053Z,89.32
2022-12-22T01:19:45.914Z,87.97
2022-12-22T01:22:34.350Z,89.18
2022-12-22T01:25:19.975Z,82.85
2022-12-22T01:28:05.413Z,76.78
2022-12-22T01:30:51.170Z,71.97
2022-12-22T01:33:38.439Z,70.00
2022-12-22T01:36:24.283Z,68.15
2022-12-22T01:39:10.027Z,68.28
2022-12-22T01:41:55.837Z,67.65
2022-12-22T01:44:41.793Z,70.80
2022-12-22T01:47:50.570Z,73.55
2022-12-22T01:50:43.008Z,75.30
2022-12-22T01:53:33.983Z,80.90
2022-12-22T01:56:20.473Z,77.30
2022-12-22T01:59:10.245Z,82.30
2022-12-22T02:01:56.645Z,79.85
2022-12-22T02:04:47.828Z,82.82
2022-12-22T02:07:54.683Z,83.97
2022-12-22T02:10:58.343Z,83.03
2022-12-22T02:13:52.312Z,83.20
2022-12-22T02:16:44.493Z,76.57
2022-12-22T02:19:44.090Z,68.57
2022-12-22T02:22:38.200Z,55.42
2022-12-22T02:25:33.912Z,46.25
2022-12-22T02:28:22.424Z,47.42
2022-12-22T02:31:10.237Z,41.97
2022-12-22T02:33:55.960Z,38.33
2022-12-22T02:36:53.042Z,43.15
2022-12-22T02:39:48.596Z,46.47
2022-12-22T02:42:42.678Z,41.78
2022-12-22T02:45:38.556Z,40.22
2022-12-22T02:48:28.564Z,37.05
2022-12-22T02:51:24.022Z,38.20
2022-12-22T02:54:11.204Z,34.03
2022-12-22T02:56:59.462Z,35.00
2022-12-22T02:59:45.027Z,35.28
2022-12-22T03:02:33.037Z,36.33
2022-12-22T03:05:18.689Z,37.42
2022-12-22T03:08:08.224Z,36.25
2022-12-22T03:10:54.592Z,35.55
2022-12-22T03:13:40.300Z,37.40
2022-12-22T03:16:26.216Z,36.15
2022-12-22T03:19:13.355Z,34.50
2022-12-22T03:21:58.826Z,36.92
2022-12-22T03:24:44.897Z,37.28
2022-12-22T03:27:13.028Z,35.50
2022-12-22T03:29:41.272Z,35.55
2022-12-22T03:32:09.449Z,35.45
2022-12-22T03:34:39.044Z,34.65
2022-12-22T03:37:07.229Z,34.22
2022-12-22T03:39:35.486Z,37.03
2022-12-22T03:42:20.992Z,34.50
2022-12-22T03:45:08.717Z,36.42
2022-12-22T03:47:36.879Z,34.10
2022-12-22T03:50:07.568Z,34.65
2022-12-22T03:52:35.825Z,31.92
2022-12-22T03:55:04.073Z,35.83
2022-12-22T03:57:32.209Z,31.73
2022-12-22T04:00:00.629Z,31.42
2022-12-22T04:02:28.927Z,32.88
2022-12-22T04:04:57.397Z,30.48
2022-12-22T04:07:26.952Z,29.70
2022-12-22T04:10:12.679Z,27.98
2022-12-22T04:12:56.171Z,25.85
2022-12-22T04:15:25.861Z,27.67
2022-12-22T04:17:54.187Z,29.80
2022-12-22T04:20:26.807Z,30.42
2022-12-22T04:22:57.364Z,31.17
2022-12-22T04:25:27.181Z,31.75
2022-12-22T04:27:55.814Z,28.65
2022-12-22T04:30:24.188Z,29.83
2022-12-22T04:32:52.374Z,30.48
2022-12-22T04:35:20.728Z,28.20
2022-12-22T04:37:48.925Z,27.88
2022-12-22T04:40:18.677Z,30.38
2022-12-22T04:42:46.958Z,30.83
2022-12-22T04:45:15.231Z,31.27
2022-12-22T04:47:43.591Z,32.75
2022-12-22T04:50:12.447Z,32.95
2022-12-22T04:52:40.672Z,38.10
2022-12-22T04:55:09.767Z,36.42
2022-12-22T04:57:41.085Z,39.75
2022-12-22T05:00:10.719Z,40.35
2022-12-22T05:02:39.232Z,39.00
2022-12-22T05:05:08.677Z,42.83
2022-12-22T05:07:37.201Z,42.08
2022-12-22T05:10:06.214Z,42.00
2022-12-22T05:12:51.600Z,44.05
2022-12-22T05:15:21.336Z,47.63
2022-12-22T05:17:49.682Z,43.40
2022-12-22T05:20:18.371Z,40.20
2022-12-22T05:22:47.574Z,40.17
2022-12-22T05:25:17.620Z,38.08
2022-12-22T05:27:46.183Z,37.80
2022-12-22T05:30:16.124Z,35.70
2022-12-22T05:32:45.838Z,37.17
2022-12-22T05:35:14.452Z,36.05
2022-12-22T05:37:42.846Z,35.70
2022-12-22T05:40:13.071Z,36.55
2022-12-22T05:42:41.300Z,35.40
2022-12-22T05:45:15.092Z,35.22
2022-12-22T05:47:45.740Z,35.35
2022-12-22T05:50:15.824Z,36.25
2022-12-22T05:52:45.345Z,35.50
2022-12-22T05:55:14.472Z,34.00
2022-12-22T05:57:43.579Z,38.83
2022-12-22T06:00:14.401Z,34.78
2022-12-22T06:02:44.349Z,35.92
2022-12-22T06:05:15.601Z,35.88
2022-12-22T06:07:43.880Z,34.45
2022-12-22T06:10:13.262Z,38.70
2022-12-22T06:12:42.165Z,39.30
2022-12-22T06:15:12.562Z,39.42
2022-12-22T06:17:44.752Z,40.55
2022-12-22T06:20:15.650Z,44.13
2022-12-22T06:22:44.151Z,42.53
2022-12-22T06:25:18.156Z,44.92
2022-12-22T06:27:47.721Z,45.17
2022-12-22T06:30:16.770Z,43.60
2022-12-22T06:32:45.056Z,48.42
2022-12-22T06:35:14.745Z,45.40
2022-12-22T06:37:43.034Z,45.22
2022-12-22T06:40:12.259Z,48.15
2022-12-22T06:43:02.339Z,46.83
2022-12-22T06:45:34.334Z,43.55
2022-12-22T06:48:02.977Z,47.80
2022-12-22T06:50:32.760Z,45.30
2022-12-22T06:53:01.304Z,49.40
2022-12-22T06:55:29.505Z,50.03
2022-12-22T06:57:57.728Z,53.17
2022-12-22T07:00:26.186Z,52.47
2022-12-22T07:02:54.664Z,55.10
2022-12-22T07:05:23.913Z,58.65
2022-12-22T07:07:53.788Z,55.28
2022-12-22T07:10:42.664Z,55.28
2022-12-22T07:13:20.671Z,53.47
2022-12-22T07:15:55.437Z,54.30
2022-12-22T07:18:28.382Z,59.42
2022-12-22T07:20:56.539Z,58.53
2022-12-22T07:23:26.947Z,58.15
2022-12-22T07:25:55.310Z,56.90
2022-12-22T07:28:23.582Z,60.60
2022-12-22T07:30:52.571Z,58.00
2022-12-22T07:33:21.149Z,62.72
2022-12-22T07:35:49.417Z,68.50
2022-12-22T07:38:17.690Z,67.00
2022-12-22T07:40:51.887Z,70.75
2022-12-22T07:43:19.819Z,71.85
2022-12-22T07:45:48.419Z,74.88
2022-12-22T07:48:34.394Z,81.28
2022-12-22T07:51:05.081Z,85.28
2022-12-22T07:53:33.910Z,82.80
2022-12-22T07:56:06.295Z,81.47
2022-12-22T07:58:34.963Z,81.50
2022-12-22T08:01:03.156Z,79.32
2022-12-22T08:03:31.359Z,77.28
2022-12-22T08:05:59.744Z,72.07
2022-12-22T08:08:28.002Z,68.97
2022-12-22T08:10:56.189Z,67.55
2022-12-22T08:13:25.963Z,71.53
2022-12-22T08:15:54.246Z,68.65
2022-12-22T08:18:22.606Z,67.35
2022-12-22T08:20:51.810Z,72.93
2022-12-22T08:23:20.180Z,73.32
2022-12-22T08:25:53.272Z,75.70
2022-12-22T08:28:21.782Z,75.35
2022-12-22T08:30:51.353Z,70.47
2022-12-22T08:33:19.608Z,74.05
2022-12-22T08:35:47.886Z,73.55
2022-12-22T08:38:16.300Z,67.20
2022-12-22T08:40:46.178Z,69.10
2022-12-22T08:43:14.769Z,68.03
2022-12-22T08:45:43.684Z,72.30
2022-12-22T08:48:13.290Z,67.45
2022-12-22T08:50:41.919Z,66.10
2022-12-22T08:53:23.744Z,69.60
2022-12-22T08:55:58.880Z,72.60
2022-12-22T08:58:27.089Z,67.05
2022-12-22T09:00:55.276Z,73.75
2022-12-22T09:03:24.961Z,74.65
2022-12-22T09:05:53.251Z,69.15
2022-12-22T09:08:21.486Z,74.32
2022-12-22T09:10:49.608Z,71.20
2022-12-22T09:13:17.936Z,69.55
2022-12-22T09:15:46.214Z,71.03
2022-12-22T09:18:14.427Z,68.00
2022-12-22T09:20:44.051Z,65.30
2022-12-22T09:23:12.337Z,72.15
2022-12-22T09:25:40.585Z,69.35
2022-12-22T09:28:09.049Z,68.85
2022-12-22T09:30:37.520Z,70.05
2022-12-22T09:33:05.913Z,69.07
2022-12-22T09:35:34.196Z,67.43
2022-12-22T09:38:04.391Z,72.57
2022-12-22T09:40:33.314Z,71.63
2022-12-22T09:43:01.668Z,70.32
2022-12-22T09:45:29.979Z,72.50
2022-12-22T09:47:58.518Z,67.22
2022-12-22T09:50:28.735Z,69.13
2022-12-22T09:53:00.166Z,65.40
2022-12-22T09:55:40.584Z,68.85
2022-12-22T09:58:25.724Z,67.68
2022-12-22T10:01:02.204Z,67.47
2022-12-22T10:03:42.250Z,69.10
2022-12-22T10:06:15.534Z,70.63
2022-12-22T10:08:44.235Z,70.00
2022-12-22T10:11:17.623Z,68.88
2022-12-22T10:13:47.042Z,68.50
2022-12-22T10:16:21.675Z,65.65
2022-12-22T10:18:58.643Z,62.53
2022-12-22T10:21:27.133Z,64.28
2022-12-22T10:23:55.572Z,66.18
2022-12-22T10:26:29.198Z,65.00
2022-12-22T10:29:02.293Z,66.97
2022-12-22T10:31:32.162Z,66.10
2022-12-22T10:34:14.193Z,66.22
2022-12-22T10:36:47.743Z,67.63
2022-12-22T10:39:22.505Z,63.85
2022-12-22T10:41:55.739Z,69.20
2022-12-22T10:44:27.263Z,65.78
2022-12-22T10:46:56.781Z,62.63
2022-12-22T10:49:27.826Z,64.78
2022-12-22T10:51:58.301Z,65.68
2022-12-22T10:54:30.513Z,63.80
2022-12-22T10:57:08.559Z,60.67
2022-12-22T10:59:50.250Z,63.33
2022-12-22T11:02:27.439Z,62.95
2022-12-22T11:05:01.664Z,60.22
2022-12-22T11:07:33.185Z,64.85
2022-12-22T11:10:01.536Z,60.50
2022-12-22T11:12:41.022Z,61.28
2022-12-22T11:15:24.052Z,62.30
2022-12-22T11:18:02.929Z,62.35
2022-12-22T11:20:47.152Z,66.25
2022-12-22T11:23:23.784Z,64.18
2022-12-22T11:26:02.793Z,63.58
2022-12-22T11:28:48.303Z,64.87
2022-12-22T11:31:28.861Z,64.00
2022-12-22T11:34:08.061Z,63.65
2022-12-22T11:36:49.764Z,63.78
2022-12-22T11:39:24.732Z,63.50
2022-12-22T11:42:04.133Z,65.60
2022-12-22T11:44:41.214Z,61.27
2022-12-22T11:47:20.988Z,60.03
2022-12-22T11:51:02.092Z,62.83
2022-12-22T11:53:28.469Z,62.70
2022-12-22T11:56:17.367Z,63.63
2022-12-22T11:59:02.179Z,64.18
2022-12-22T12:01:50.795Z,62.63
2022-12-22T12:04:49.245Z,62.65
2022-12-22T12:07:26.410Z,60.05
2022-12-22T12:10:07.417Z,61.15
2022-12-22T12:12:45.796Z,59.83
2022-12-22T12:15:25.563Z,62.28
2022-12-22T12:18:13.842Z,59.15
2022-12-22T12:20:50.008Z,59.50
2022-12-22T12:23:59.751Z,61.60
2022-12-22T12:26:32.362Z,61.00
2022-12-22T12:29:14.893Z,58.13
2022-12-22T12:31:50.101Z,60.03
2022-12-22T12:34:21.807Z,60.90
2022-12-22T12:36:54.756Z,61.70
2022-12-22T12:39:30.678Z,63.40
2022-12-22T12:42:05.676Z,62.40
2022-12-22T12:44:37.360Z,62.20
2022-12-22T12:47:31.389Z,62.37
2022-12-22T12:50:29.273Z,63.13
2022-12-22T12:53:16.903Z,60.53
2022-12-22T12:56:09.909Z,62.70
2022-12-22T12:58:58.300Z,63.23
2022-12-22T13:01:58.317Z,65.63
2022-12-22T13:05:10.610Z,63.07
2022-12-22T13:08:21.566Z,59.40
2022-12-22T13:11:44.851Z,60.57
2022-12-22T13:14:10.441Z,60.35
2022-12-22T13:16:40.789Z,58.88
2022-12-22T13:19:21.334Z,60.67
2022-12-22T13:21:53.449Z,57.00
2022-12-22T13:24:29.838Z,58.57
2022-12-22T13:27:06.960Z,57.80
2022-12-22T13:29:45.811Z,56.78
2022-12-22T13:32:24.100Z,57.35
2022-12-22T13:35:29.730Z,59.80
2022-12-22T13:37:54.741Z,59.28
2022-12-22T13:40:25.401Z,58.95
2022-12-22T13:42:58.851Z,57.92
2022-12-22T13:45:37.514Z,58.92
2022-12-22T13:48:13.903Z,59.00
2022-12-22T13:50:46.330Z,56.55
2022-12-22T13:53:58.193Z,56.80
2022-12-22T13:56:15.076Z,55.90
2022-12-22T13:58:46.642Z,57.10
2022-12-22T14:01:18.220Z,54.85
2022-12-22T14:04:01.806Z,52.47
2022-12-22T14:06:33.534Z,53.90
2022-12-22T14:09:16.931Z,55.47
2022-12-22T14:11:52.116Z,52.28
2022-12-22T14:14:25.208Z,55.22
2022-12-22T14:16:57.014Z,51.55
2022-12-22T14:19:26.711Z,49.30
2022-12-22T14:22:05.805Z,48.97
2022-12-22T14:24:39.021Z,49.13
2022-12-22T14:27:13.646Z,48.83
2022-12-22T14:29:43.405Z,47.97
2022-12-22T14:32:13.843Z,49.83
2022-12-22T14:34:42.979Z,48.60
2022-12-22T14:37:11.688Z,48.60
2022-12-22T14:39:39.866Z,49.75
2022-12-22T14:42:14.888Z,47.42
2022-12-22T14:44:47.225Z,50.05
2022-12-22T14:47:18.918Z,47.70
2022-12-22T14:49:50.557Z,46.97
2022-12-22T14:52:35.851Z,46.95
2022-12-22T14:55:05.519Z,47.92
2022-12-22T14:57:37.769Z,47.00
2022-12-22T15:00:10.751Z,46.70
2022-12-22T15:02:41.068Z,47.42
2022-12-22T15:05:17.308Z,47.80
2022-12-22T15:08:05.896Z,47.70
2022-12-22T15:10:41.320Z,48.50
2022-12-22T15:13:15.954Z,47.90
2022-12-22T15:15:45.580Z,47.10
2022-12-22T15:18:16.094Z,49.40
2022-12-22T15:20:44.394Z,48.22
2022-12-22T15:23:17.414Z,52.30
2022-12-22T15:25:46.251Z,57.15
2022-12-22T15:28:14.736Z,55.50
2022-12-22T15:30:43.771Z,54.05
2022-12-22T15:33:16.215Z,51.70
2022-12-22T15:35:45.700Z,54.00
2022-12-22T15:38:15.958Z,50.28
2022-12-22T15:40:44.492Z,52.03
2022-12-22T15:43:53.501Z,49.95
2022-12-22T15:46:03.511Z,48.88
2022-12-22T15:48:35.732Z,51.85
2022-12-22T15:51:06.876Z,50.60
2022-12-22T15:53:35.960Z,49.70
2022-12-22T15:56:04.511Z,48.15
2022-12-22T15:58:36.613Z,48.22
2022-12-22T16:01:05.316Z,48.97
2022-12-22T16:03:35.208Z,49.08
2022-12-22T16:06:03.605Z,49.28
2022-12-22T16:08:34.310Z,49.90
2022-12-22T16:11:02.582Z,48.92
2022-12-22T16:13:31.005Z,47.53
2022-12-22T16:15:59.904Z,49.13
2022-12-22T16:18:28.206Z,63.40
2022-12-22T16:21:04.597Z,79.07
2022-12-22T16:23:32.837Z,81.15
2022-12-22T16:26:02.448Z,105.72
2022-12-22T16:28:31.108Z,100.97
2022-12-22T16:31:00.425Z,94.25
2022-12-22T16:33:29.041Z,163.73
2022-12-22T16:36:00.049Z,101.97
2022-12-22T16:38:28.282Z,92.70
2022-12-22T16:40:56.626Z,92.55
2022-12-22T16:43:48.949Z,90.70
2022-12-22T16:46:19.742Z,88.63
2022-12-22T16:48:50.758Z,98.38
2022-12-22T16:51:25.366Z,98.30
2022-12-22T16:53:54.200Z,99.18
2022-12-22T16:56:24.917Z,103.50
2022-12-22T16:58:53.204Z,105.10
2022-12-22T17:01:38.361Z,128.00
2022-12-22T17:04:10.800Z,128.35
2022-12-22T17:06:41.184Z,140.20
2022-12-22T17:09:17.033Z,118.00
2022-12-22T17:11:46.438Z,122.05
2022-12-22T17:14:25.219Z,132.25
2022-12-22T17:16:54.536Z,128.85
2022-12-22T17:19:23.006Z,130.95
2022-12-22T17:21:54.413Z,123.05
2022-12-22T17:24:28.037Z,121.45
2022-12-22T17:26:59.948Z,110.88
2022-12-22T17:29:28.189Z,105.60
2022-12-22T17:31:57.072Z,97.88
2022-12-22T17:34:25.567Z,87.32
2022-12-22T17:36:56.823Z,92.03
2022-12-22T17:39:25.649Z,106.07
2022-12-22T17:41:57.319Z,113.80
2022-12-22T17:44:28.323Z,109.57
2022-12-22T17:46:56.680Z,122.93
2022-12-22T17:49:24.947Z,131.73
2022-12-22T17:51:54.478Z,126.85
2022-12-22T17:54:25.473Z,128.65
2022-12-22T17:56:59.565Z,151.52
2022-12-22T17:59:28.174Z,190.95
2022-12-22T18:01:56.552Z,136.77
2022-12-22T18:04:25.018Z,113.07
2022-12-22T18:06:56.010Z,99.05
2022-12-22T18:09:27.315Z,119.13
2022-12-22T18:11:55.644Z,116.32
2022-12-22T18:14:24.322Z,107.97
2022-12-22T18:16:52.656Z,100.97
2022-12-22T18:19:20.976Z,97.75
2022-12-22T18:21:49.672Z,87.25
2022-12-22T18:24:20.569Z,92.93
2022-12-22T18:26:48.843Z,95.88
2022-12-22T18:29:17.614Z,79.93
2022-12-22T18:31:46.036Z,68.55
2022-12-22T18:34:14.480Z,69.88
2022-12-22T18:36:45.594Z,68.38
2022-12-22T18:39:18.979Z,62.70
2022-12-22T18:41:49.167Z,66.40
2022-12-22T18:44:18.171Z,69.03
2022-12-22T18:46:47.031Z,64.15
2022-12-22T18:49:15.645Z,63.30
2022-12-22T18:51:44.829Z,65.30
2022-12-22T18:54:23.423Z,67.03
2022-12-22T18:56:53.641Z,64.15
2022-12-22T18:59:29.333Z,66.78
2022-12-22T19:02:05.163Z,67.00
2022-12-22T19:04:33.519Z,73.88
2022-12-22T19:07:01.685Z,77.40
2022-12-22T19:09:29.940Z,80.88
2022-12-22T19:11:59.574Z,78.43
2022-12-22T19:14:27.976Z,69.20
2022-12-22T19:16:56.209Z,67.18
2022-12-22T19:19:24.465Z,70.13
2022-12-22T19:21:53.742Z,70.88
2022-12-22T19:24:21.949Z,66.82
2022-12-22T19:26:50.234Z,70.97
2022-12-22T19:29:19.933Z,69.00
2022-12-22T19:31:48.344Z,70.60
2022-12-22T19:34:19.691Z,72.82
2022-12-22T19:36:48.172Z,77.72
2022-12-22T19:39:16.843Z,78.43
2022-12-22T19:41:47.894Z,73.85
2022-12-22T19:44:24.392Z,75.65
2022-12-22T19:46:54.160Z,74.32
2022-12-22T19:49:24.594Z,77.07
2022-12-22T19:51:52.839Z,72.22
2022-12-22T19:54:21.250Z,85.45
2022-12-22T19:56:52.418Z,76.53
2022-12-22T19:59:38.758Z,69.10
2022-12-22T20:02:25.343Z,67.35
2022-12-22T20:04:54.270Z,72.13
2022-12-22T20:07:24.723Z,77.13
2022-12-22T20:09:53.392Z,75.35
2022-12-22T20:12:26.338Z,73.63
2022-12-22T20:14:56.115Z,72.53
2022-12-22T20:17:24.346Z,72.57
2022-12-22T20:19:52.559Z,71.38
2022-12-22T20:22:24.307Z,69.25
2022-12-22T20:24:54.540Z,72.82
2022-12-22T20:27:25.491Z,65.18
2022-12-22T20:29:55.045Z,68.55
2022-12-22T20:32:27.867Z,69.60
2022-12-22T20:34:56.702Z,73.95
2022-12-22T20:37:25.256Z,73.43
2022-12-22T20:39:53.428Z,84.10
2022-12-22T20:42:24.961Z,85.57
2022-12-22T20:45:02.747Z,81.15
2022-12-22T20:47:34.788Z,79.53
2022-12-22T20:50:03.104Z,85.07
2022-12-22T20:52:31.408Z,87.05
2022-12-22T20:54:59.571Z,95.38
2022-12-22T20:57:28.648Z,92.57
2022-12-22T20:59:57.058Z,92.10
2022-12-22T21:02:28.221Z,89.22
2022-12-22T21:04:58.227Z,88.57
2022-12-22T21:07:26.502Z,84.95
2022-12-22T21:09:54.755Z,83.45
2022-12-22T21:12:23.017Z,89.20
2022-12-22T21:14:52.000Z,90.00
2022-12-22T21:17:20.829Z,94.13
2022-12-22T21:19:49.782Z,88.05
2022-12-22T21:22:19.431Z,86.40
2022-12-22T21:24:47.750Z,92.40
2022-12-22T21:27:20.117Z,85.47
2022-12-22T21:29:49.019Z,85.13
2022-12-22T21:32:17.517Z,89.50
2022-12-22T21:34:45.771Z,87.50
2022-12-22T21:37:19.859Z,84.68
2022-12-22T21:39:49.749Z,84.00
2022-12-22T21:42:18.750Z,87.82
2022-12-22T21:44:47.143Z,81.97
2022-12-22T21:47:19.771Z,84.68
2022-12-22T21:49:48.318Z,84.88
2022-12-22T21:52:16.510Z,80.63
2022-12-22T21:54:44.720Z,79.80
2022-12-22T21:57:16.134Z,85.97
2022-12-22T21:59:44.535Z,83.20
2022-12-22T22:02:17.462Z,81.47
2022-12-22T22:04:52.081Z,84.13
2022-12-22T22:07:22.997Z,79.28
2022-12-22T22:09:51.230Z,74.40
2022-12-22T22:12:37.055Z,75.00
2022-12-22T22:15:06.875Z,77.75
2022-12-22T22:17:35.409Z,75.75
2022-12-22T22:20:03.664Z,74.35
2022-12-22T22:22:31.931Z,79.72
2022-12-22T22:25:00.179Z,81.82
2022-12-22T22:27:29.758Z,81.65
2022-12-22T22:29:57.953Z,82.25
2022-12-22T22:32:26.133Z,82.65
2022-12-22T22:34:54.332Z,84.05
2022-12-22T22:37:22.604Z,86.65
2022-12-22T22:39:51.111Z,84.60
2022-12-22T22:42:19.314Z,87.97
2022-12-22T22:44:49.226Z,91.22
2022-12-22T22:47:17.737Z,87.50
2022-12-22T22:49:46.042Z,88.80
2022-12-22T22:52:14.369Z,94.57
2022-12-22T22:54:42.890Z,98.85
2022-12-22T22:57:11.102Z,99.50
2022-12-22T22:59:39.429Z,100.60
2022-12-22T23:02:10.780Z,99.47
2022-12-22T23:04:39.225Z,98.60
2022-12-22T23:07:07.407Z,97.05
2022-12-22T23:09:35.876Z,95.63
2022-12-22T23:12:04.211Z,94.80
2022-12-22T23:14:32.663Z,93.53
2022-12-22T23:17:00.965Z,95.90
2022-12-22T23:19:30.543Z,96.85
2022-12-22T23:21:58.881Z,95.57
2022-12-22T23:24:27.144Z,97.20
2022-12-22T23:26:55.366Z,94.15
2022-12-22T23:29:23.679Z,94.68
2022-12-22T23:31:51.968Z,90.22
2022-12-22T23:34:20.377Z,94.25
2022-12-22T23:36:49.955Z,95.80
2022-12-22T23:39:18.260Z,90.38
2022-12-22T23:41:46.415Z,92.82
2022-12-22T23:44:14.815Z,94.38
2022-12-22T23:46:42.989Z,94.03
2022-12-22T23:49:12.867Z,90.45
2022-12-22T23:51:41.566Z,94.28
2022-12-22T23:54:11.372Z,95.32
2022-12-22T23:56:39.692Z,94.45
2022-12-22T23:59:07.997Z,95.85
